Time;durP1;ratioP1;P1;durP2;ratioP2;P2;SDS_P1;SDS_P2;PMS_P1;PMS_P2;Temp;Humidity;BMP_temperature;BMP_pressure;BME280_temperature;BME280_humidity;BME280_pressure;Samples;Min_cycle;Max_cycle;Signal;HPM_P1;HPM_P2
2023/08/13 00:01:08;;;;;;;20.95;9.68;;;;;;;;;;4949392;28;20031;-58
2023/08/13 00:03:34;;;;;;;23.00;10.00;;;;;;;;;;4950643;28;20462;-57
2023/08/13 00:06:00;;;;;;;21.00;9.43;;;;;;;;;;4950351;28;20045;-58
2023/08/13 00:08:26;;;;;;;24.08;10.07;;;;;;;;;;4949192;28;20058;-58
2023/08/13 00:10:52;;;;;;;22.70;10.02;;;;;;;;;;4943131;28;20460;-58
2023/08/13 00:13:18;;;;;;;22.92;9.77;;;;;;;;;;4931335;29;20031;-56
2023/08/13 00:15:44;;;;;;;21.92;9.15;;;;;;;;;;4931203;28;20400;-57
2023/08/13 00:18:10;;;;;;;22.90;10.55;;;;;;;;;;4933609;29;20027;-58
2023/08/13 00:20:36;;;;;;;24.20;10.77;;;;;;;;;;4933462;28;20031;-58
2023/08/13 00:23:03;;;;;;;22.35;9.60;;;;;;;;;;4934400;29;20550;-57
2023/08/13 00:25:28;;;;;;;23.40;9.65;;;;;;;;;;5033794;28;20034;-58
2023/08/13 00:27:54;;;;;;;21.77;12.02;;;;;;;;;;4934577;29;20384;-58
2023/08/13 00:30:20;;;;;;;20.42;10.15;;;;;;;;;;4933225;29;20122;-56
2023/08/13 00:32:46;;;;;;;21.60;11.35;;;;;;;;;;4934541;29;20105;-54
2023/08/13 00:35:12;;;;;;;23.40;11.98;;;;;;;;;;4934403;29;20094;-52
2023/08/13 00:37:39;;;;;;;22.27;10.80;;;;;;;;;;4934669;29;20063;-57
2023/08/13 00:40:05;;;;;;;21.83;10.88;;;;;;;;;;4952208;28;20501;-54
2023/08/13 00:42:31;;;;;;;25.75;11.43;;;;;;;;;;4953511;28;20399;-57
2023/08/13 00:44:57;;;;;;;21.70;10.82;;;;;;;;;;4953327;28;20027;-57
2023/08/13 00:47:23;;;;;;;26.42;10.43;;;;;;;;;;4953495;28;20113;-52
2023/08/13 00:49:52;;;;;;;22.02;10.82;;;;;;;;;;4953281;28;20028;-52
2023/08/13 00:52:18;;;;;;;24.85;11.68;;;;;;;;;;4953268;28;20024;-56
2023/08/13 00:54:44;;;;;;;22.50;11.60;;;;;;;;;;4953063;28;20032;-56
2023/08/13 00:57:10;;;;;;;21.35;10.48;;;;;;;;;;4951902;28;20138;-57
2023/08/13 00:59:36;;;;;;;23.02;11.20;;;;;;;;;;4951941;28;20118;-58
2023/08/13 01:02:02;;;;;;;22.30;11.15;;;;;;;;;;4951861;28;20050;-58
2023/08/13 01:04:28;;;;;;;26.40;11.85;;;;;;;;;;4952766;28;20511;-58
2023/08/13 01:07:03;;;;;;;21.02;11.27;;;;;;;;;;4942666;29;20050;-58
2023/08/13 01:09:44;;;;;;;22.25;11.32;;;;;;;;;;4933959;29;20051;-58
2023/08/13 01:12:23;;;;;;;22.00;11.50;;;;;;;;;;4934095;29;20019;-58
2023/08/13 01:14:52;;;;;;;20.45;10.60;;;;;;;;;;4932468;29;20035;-56
2023/08/13 01:17:20;;;;;;;22.45;10.52;;;;;;;;;;4933969;29;20028;-58
2023/08/13 01:19:46;;;;;;;22.42;11.35;;;;;;;;;;4934069;29;20032;-56
2023/08/13 01:22:12;;;;;;;26.27;11.18;;;;;;;;;;4933999;29;20102;-57
2023/08/13 01:24:37;;;;;;;25.67;11.50;;;;;;;;;;4933773;29;20032;-58
2023/08/13 01:27:22;;;;;;;22.50;10.98;;;;;;;;;;4936221;29;20078;-57
2023/08/13 01:29:54;;;;;;;22.55;11.27;;;;;;;;;;4952669;28;20042;-56
2023/08/13 01:32:23;;;;;;;24.95;11.80;;;;;;;;;;4951805;28;20030;-58
2023/08/13 01:34:50;;;;;;;24.25;11.30;;;;;;;;;;4952638;28;20106;-58
2023/08/13 01:37:16;;;;;;;24.50;11.27;;;;;;;;;;4952868;28;20043;-58
2023/08/13 01:39:42;;;;;;;24.05;11.73;;;;;;;;;;4952940;28;20062;-53
2023/08/13 01:42:11;;;;;;;23.88;11.52;;;;;;;;;;4952728;28;20027;-57
2023/08/13 01:44:37;;;;;;;25.70;11.85;;;;;;;;;;4952797;28;20035;-54
2023/08/13 01:47:04;;;;;;;26.80;12.50;;;;;;;;;;4951514;28;20392;-54
2023/08/13 01:49:30;;;;;;;27.20;12.07;;;;;;;;;;4952559;28;20023;-55
2023/08/13 01:51:56;;;;;;;25.80;11.75;;;;;;;;;;4952448;28;20391;-58
2023/08/13 01:54:22;;;;;;;25.55;12.52;;;;;;;;;;4952104;28;20042;-58
2023/08/13 01:56:48;;;;;;;23.75;12.20;;;;;;;;;;4933347;28;20051;-57
2023/08/13 01:59:14;;;;;;;23.02;11.63;;;;;;;;;;4933209;29;20024;-57
2023/08/13 02:01:40;;;;;;;21.70;11.60;;;;;;;;;;4933244;29;20035;-58
2023/08/13 02:04:06;;;;;;;21.95;10.73;;;;;;;;;;4932129;29;20031;-58
2023/08/13 02:06:35;;;;;;;20.83;11.18;;;;;;;;;;4933207;29;20623;-58
2023/08/13 02:09:01;;;;;;;22.77;10.95;;;;;;;;;;4933250;29;20055;-57
2023/08/13 02:11:27;;;;;;;28.17;11.00;;;;;;;;;;4933196;29;20082;-58
2023/08/13 02:13:53;;;;;;;20.17;10.32;;;;;;;;;;4933035;29;20552;-54
2023/08/13 02:16:19;;;;;;;22.73;9.77;;;;;;;;;;4933048;29;20103;-58
2023/08/13 02:18:45;;;;;;;21.73;9.95;;;;;;;;;;4932921;28;20027;-58
2023/08/13 02:21:11;;;;;;;22.42;11.43;;;;;;;;;;5032098;28;20028;-54
2023/08/13 02:23:37;;;;;;;23.73;10.52;;;;;;;;;;4942373;28;20035;-58
2023/08/13 02:26:03;;;;;;;26.73;10.23;;;;;;;;;;4950545;28;20051;-58
2023/08/13 02:28:29;;;;;;;19.70;9.88;;;;;;;;;;4951849;29;20438;-57
2023/08/13 02:30:55;;;;;;;21.83;10.07;;;;;;;;;;5013477;28;20032;-56
2023/08/13 02:33:20;;;;;;;21.73;10.98;;;;;;;;;;5032964;28;20070;-55
2023/08/13 02:35:46;;;;;;;28.95;10.32;;;;;;;;;;5032672;28;20386;-57
2023/08/13 02:38:12;;;;;;;25.55;10.95;;;;;;;;;;5032817;28;20033;-57
2023/08/13 02:40:38;;;;;;;21.73;9.60;;;;;;;;;;5021843;28;20033;-58
2023/08/13 02:43:05;;;;;;;26.40;9.88;;;;;;;;;;4932719;29;20473;-58
2023/08/13 02:45:31;;;;;;;20.92;9.18;;;;;;;;;;4932732;29;20081;-56
2023/08/13 02:47:57;;;;;;;24.40;9.43;;;;;;;;;;4932356;28;20447;-58
2023/08/13 02:50:24;;;;;;;21.15;8.93;;;;;;;;;;4932817;29;20477;-58
2023/08/13 02:52:49;;;;;;;24.40;9.15;;;;;;;;;;5031295;28;20074;-53
2023/08/13 02:55:15;;;;;;;21.38;9.43;;;;;;;;;;4932349;29;20378;-58
2023/08/13 02:57:41;;;;;;;22.05;8.48;;;;;;;;;;4932355;29;20055;-54
2023/08/13 03:00:08;;;;;;;22.92;8.77;;;;;;;;;;4932400;29;20028;-57
2023/08/13 03:02:34;;;;;;;25.08;8.45;;;;;;;;;;4932343;28;20066;-56
2023/08/13 03:05:01;;;;;;;19.83;8.80;;;;;;;;;;5030896;28;20059;-57
2023/08/13 03:07:27;;;;;;;19.98;7.90;;;;;;;;;;4932226;28;20028;-56
2023/08/13 03:09:53;;;;;;;22.67;9.45;;;;;;;;;;5033868;28;20037;-58
2023/08/13 03:12:18;;;;;;;21.10;8.45;;;;;;;;;;4951351;28;20467;-58
2023/08/13 03:14:45;;;;;;;19.75;8.43;;;;;;;;;;4950995;29;20032;-56
2023/08/13 03:17:11;;;;;;;24.52;8.32;;;;;;;;;;4951275;28;20114;-55
2023/08/13 03:19:37;;;;;;;19.77;8.38;;;;;;;;;;4951137;28;20122;-56
2023/08/13 03:22:02;;;;;;;24.45;8.68;;;;;;;;;;4951211;28;20028;-58
2023/08/13 03:24:28;;;;;;;18.77;8.20;;;;;;;;;;4950887;28;20036;-56
2023/08/13 03:26:54;;;;;;;23.88;8.52;;;;;;;;;;4950897;28;20057;-58
2023/08/13 03:29:20;;;;;;;23.10;8.55;;;;;;;;;;4949474;28;20062;-58
2023/08/13 03:31:46;;;;;;;21.90;8.32;;;;;;;;;;4932092;29;20115;-57
2023/08/13 03:34:12;;;;;;;23.80;8.13;;;;;;;;;;4931624;28;20028;-56
2023/08/13 03:36:38;;;;;;;21.20;8.45;;;;;;;;;;4931769;29;20032;-58
2023/08/13 03:39:04;;;;;;;20.33;7.82;;;;;;;;;;4931781;29;20028;-58
2023/08/13 03:41:30;;;;;;;22.83;8.52;;;;;;;;;;4932659;28;20034;-58
2023/08/13 03:43:56;;;;;;;21.80;9.00;;;;;;;;;;5029961;28;20032;-56
2023/08/13 03:46:22;;;;;;;19.98;7.85;;;;;;;;;;4999018;28;20030;-56
2023/08/13 03:48:48;;;;;;;25.48;7.93;;;;;;;;;;5031283;28;20037;-58
2023/08/13 03:51:14;;;;;;;21.98;9.38;;;;;;;;;;5030112;28;20048;-58
2023/08/13 03:53:40;;;;;;;22.88;9.40;;;;;;;;;;5031400;28;20401;-58
2023/08/13 03:56:06;;;;;;;19.17;7.85;;;;;;;;;;5031113;28;20026;-58
2023/08/13 03:58:34;;;;;;;24.73;9.00;;;;;;;;;;4983408;28;20027;-58
2023/08/13 04:01:04;;;;;;;19.33;8.30;;;;;;;;;;4950391;28;20023;-58
2023/08/13 04:03:30;;;;;;;23.15;8.10;;;;;;;;;;4950602;28;20034;-57
2023/08/13 04:05:56;;;;;;;22.25;7.60;;;;;;;;;;4950416;28;20476;-53
2023/08/13 04:08:22;;;;;;;28.48;8.40;;;;;;;;;;4950327;28;20032;-57
2023/08/13 04:10:48;;;;;;;21.85;8.30;;;;;;;;;;4950547;28;20027;-58
2023/08/13 04:13:14;;;;;;;22.65;8.63;;;;;;;;;;4949218;28;20522;-55
2023/08/13 04:15:40;;;;;;;25.33;9.48;;;;;;;;;;4949014;28;20027;-57
2023/08/13 04:18:06;;;;;;;20.33;8.18;;;;;;;;;;4950374;28;20499;-58
2023/08/13 04:20:32;;;;;;;23.73;8.13;;;;;;;;;;4950408;28;20502;-58
2023/08/13 04:22:58;;;;;;;22.58;8.35;;;;;;;;;;4950434;28;20153;-58
2023/08/13 04:25:25;;;;;;;22.52;9.02;;;;;;;;;;4949732;28;20610;-58
2023/08/13 04:27:51;;;;;;;24.08;8.93;;;;;;;;;;4948595;28;20028;-58
2023/08/13 04:30:17;;;;;;;20.67;8.35;;;;;;;;;;4949012;28;20027;-58
2023/08/13 04:32:51;;;;;;;22.70;8.48;;;;;;;;;;4950243;28;20488;-55
2023/08/13 04:35:17;;;;;;;21.25;8.07;;;;;;;;;;4950044;28;20549;-58
2023/08/13 04:37:43;;;;;;;21.45;8.27;;;;;;;;;;4950267;29;20035;-58
2023/08/13 04:40:10;;;;;;;24.45;8.57;;;;;;;;;;4950144;29;20463;-58
2023/08/13 04:42:36;;;;;;;21.70;9.25;;;;;;;;;;4950204;28;20030;-58
2023/08/13 04:45:02;;;;;;;24.88;9.38;;;;;;;;;;4950048;28;20059;-56
2023/08/13 04:47:28;;;;;;;19.38;8.85;;;;;;;;;;4950019;28;20085;-54
2023/08/13 04:49:54;;;;;;;21.63;7.82;;;;;;;;;;4950072;29;20047;-57
2023/08/13 04:52:20;;;;;;;23.77;9.30;;;;;;;;;;4950002;28;20049;-53
2023/08/13 04:54:46;;;;;;;24.35;8.55;;;;;;;;;;4932860;28;20632;-58
2023/08/13 04:57:12;;;;;;;23.42;8.27;;;;;;;;;;4930856;29;20062;-58
2023/08/13 04:59:38;;;;;;;21.10;8.52;;;;;;;;;;4930771;28;20032;-58
2023/08/13 05:02:04;;;;;;;22.25;8.73;;;;;;;;;;4946962;29;20042;-58
2023/08/13 05:04:30;;;;;;;23.77;8.70;;;;;;;;;;4951112;28;20514;-56
2023/08/13 05:06:56;;;;;;;26.88;8.77;;;;;;;;;;4953057;28;20062;-57
2023/08/13 05:09:22;;;;;;;18.63;7.53;;;;;;;;;;4953073;28;20365;-57
2023/08/13 05:11:48;;;;;;;23.55;8.98;;;;;;;;;;4953083;28;20027;-57
2023/08/13 05:14:14;;;;;;;24.98;8.88;;;;;;;;;;4952815;28;20053;-58
2023/08/13 05:16:40;;;;;;;20.38;7.40;;;;;;;;;;4953008;28;20395;-57
2023/08/13 05:19:06;;;;;;;20.25;7.22;;;;;;;;;;4952873;28;20031;-55
2023/08/13 05:21:32;;;;;;;21.63;7.68;;;;;;;;;;4952952;28;20023;-56
2023/08/13 05:23:58;;;;;;;21.17;7.88;;;;;;;;;;4952826;28;20484;-58
2023/08/13 05:26:24;;;;;;;21.98;8.10;;;;;;;;;;4953199;28;20093;-55
2023/08/13 05:28:50;;;;;;;23.20;7.47;;;;;;;;;;4944085;28;20527;-57
2023/08/13 05:31:16;;;;;;;22.35;6.35;;;;;;;;;;4933688;28;20028;-57
2023/08/13 05:33:42;;;;;;;26.83;7.97;;;;;;;;;;5032797;28;20024;-56
2023/08/13 05:36:08;;;;;;;20.98;7.55;;;;;;;;;;5032796;28;20570;-56
2023/08/13 05:38:34;;;;;;;22.60;6.82;;;;;;;;;;4933559;28;20174;-57
2023/08/13 05:41:00;;;;;;;20.48;6.03;;;;;;;;;;4933658;29;20024;-57
2023/08/13 05:43:26;;;;;;;24.77;7.20;;;;;;;;;;4933838;28;20556;-57
2023/08/13 05:45:52;;;;;;;19.52;6.57;;;;;;;;;;4933449;28;20182;-57
2023/08/13 05:48:18;;;;;;;18.08;6.97;;;;;;;;;;5033786;28;20052;-58
2023/08/13 05:50:44;;;;;;;21.40;6.38;;;;;;;;;;5032481;28;20020;-56
2023/08/13 05:53:10;;;;;;;18.95;7.38;;;;;;;;;;4933555;29;20046;-58
2023/08/13 05:55:36;;;;;;;24.10;7.32;;;;;;;;;;5031921;28;20412;-58
2023/08/13 05:58:02;;;;;;;20.20;7.10;;;;;;;;;;4914474;29;20035;-59
2023/08/13 06:00:29;;;;;;;19.52;6.95;;;;;;;;;;4914391;29;20020;-59
2023/08/13 06:02:55;;;;;;;22.13;7.15;;;;;;;;;;4914272;29;20032;-59
2023/08/13 06:05:21;;;;;;;20.77;6.30;;;;;;;;;;4914010;29;20036;-55
2023/08/13 06:07:47;;;;;;;19.40;6.13;;;;;;;;;;4914042;29;20186;-56
2023/08/13 06:10:13;;;;;;;22.58;7.20;;;;;;;;;;4914132;29;20028;-55
2023/08/13 06:12:39;;;;;;;19.83;5.65;;;;;;;;;;4914124;29;20027;-57
2023/08/13 06:15:05;;;;;;;20.30;6.38;;;;;;;;;;4912780;29;20513;-56
2023/08/13 06:17:31;;;;;;;18.25;5.70;;;;;;;;;;4913928;29;20028;-57
2023/08/13 06:19:58;;;;;;;33.75;6.68;;;;;;;;;;4914053;29;20492;-58
2023/08/13 06:22:24;;;;;;;24.33;6.10;;;;;;;;;;4914246;29;20035;-58
2023/08/13 06:24:50;;;;;;;18.75;6.15;;;;;;;;;;4936246;28;20106;-57
2023/08/13 06:27:16;;;;;;;22.45;7.10;;;;;;;;;;4952011;28;20069;-58
2023/08/13 06:29:41;;;;;;;19.63;7.03;;;;;;;;;;4950859;28;20051;-57
2023/08/13 06:32:07;;;;;;;19.40;6.75;;;;;;;;;;4951963;28;20096;-57
2023/08/13 06:34:34;;;;;;;18.58;5.80;;;;;;;;;;4950541;28;20038;-56
2023/08/13 06:37:00;;;;;;;20.70;6.28;;;;;;;;;;4950656;28;20361;-57
2023/08/13 06:39:26;;;;;;;19.30;5.60;;;;;;;;;;4951878;28;20043;-57
2023/08/13 06:41:52;;;;;;;22.10;5.78;;;;;;;;;;4951808;28;20077;-54
2023/08/13 06:44:19;;;;;;;21.90;6.95;;;;;;;;;;4951804;28;20028;-52
2023/08/13 06:46:46;;;;;;;19.33;5.70;;;;;;;;;;4950607;28;20030;-57
2023/08/13 06:49:12;;;;;;;19.23;7.00;;;;;;;;;;4951518;28;20438;-57
2023/08/13 06:51:38;;;;;;;20.67;7.05;;;;;;;;;;4949494;28;20024;-55
2023/08/13 06:54:04;;;;;;;19.85;6.03;;;;;;;;;;4982433;28;20028;-57
2023/08/13 06:56:30;;;;;;;19.58;7.00;;;;;;;;;;4985693;28;20470;-57
2023/08/13 06:58:56;;;;;;;20.00;5.60;;;;;;;;;;5032381;28;20025;-57
2023/08/13 07:01:22;;;;;;;17.80;5.53;;;;;;;;;;4952392;28;20028;-57
2023/08/13 07:03:48;;;;;;;19.30;5.80;;;;;;;;;;4932260;29;20034;-58
2023/08/13 07:06:14;;;;;;;18.40;6.05;;;;;;;;;;4932123;29;20419;-57
2023/08/13 07:08:40;;;;;;;19.63;5.93;;;;;;;;;;4959359;28;20029;-57
2023/08/13 07:11:06;;;;;;;18.10;5.95;;;;;;;;;;5032158;28;20021;-57
2023/08/13 07:13:32;;;;;;;20.08;5.63;;;;;;;;;;5032026;28;20428;-58
2023/08/13 07:15:58;;;;;;;16.85;5.45;;;;;;;;;;5031790;28;20029;-57
2023/08/13 07:18:24;;;;;;;17.70;5.32;;;;;;;;;;5031952;28;20108;-55
2023/08/13 07:20:50;;;;;;;15.93;5.15;;;;;;;;;;4955110;28;20441;-56
2023/08/13 07:23:16;;;;;;;16.15;5.35;;;;;;;;;;4931924;29;20192;-57
2023/08/13 07:25:42;;;;;;;19.50;6.10;;;;;;;;;;4956997;28;20018;-59
2023/08/13 07:28:08;;;;;;;17.75;5.40;;;;;;;;;;5032073;28;20390;-55
2023/08/13 07:30:34;;;;;;;21.00;5.03;;;;;;;;;;5031933;28;20029;-56
2023/08/13 07:33:00;;;;;;;17.25;5.57;;;;;;;;;;5030677;28;20029;-58
2023/08/13 07:35:26;;;;;;;17.17;5.32;;;;;;;;;;5031581;28;20021;-56
2023/08/13 07:37:52;;;;;;;17.23;5.20;;;;;;;;;;5031590;28;20089;-58
2023/08/13 07:40:18;;;;;;;18.80;5.95;;;;;;;;;;5032259;28;20537;-57
2023/08/13 07:42:44;;;;;;;21.20;5.35;;;;;;;;;;5031864;28;20033;-47
2023/08/13 07:45:10;;;;;;;19.95;5.97;;;;;;;;;;5031469;28;20064;-48
2023/08/13 07:47:37;;;;;;;17.38;5.78;;;;;;;;;;4996748;28;20032;-49
2023/08/13 07:50:04;;;;;;;22.20;6.78;;;;;;;;;;5030958;28;20492;-46
2023/08/13 07:52:36;;;;;;;15.77;5.53;;;;;;;;;;5027434;28;20448;-47
2023/08/13 07:55:03;;;;;;;19.42;6.63;;;;;;;;;;4931502;29;20476;-48
2023/08/13 07:57:28;;;;;;;24.85;6.63;;;;;;;;;;4931938;29;20038;-50
2023/08/13 07:59:55;;;;;;;18.42;6.07;;;;;;;;;;4931592;29;20020;-51
2023/08/13 08:02:21;;;;;;;18.08;5.68;;;;;;;;;;4931549;29;20119;-51
2023/08/13 08:04:47;;;;;;;18.50;5.53;;;;;;;;;;4931080;29;20086;-51
2023/08/13 08:07:13;;;;;;;18.20;5.10;;;;;;;;;;4931623;28;20031;-55
2023/08/13 08:09:39;;;;;;;16.67;5.72;;;;;;;;;;4931310;29;20055;-52
2023/08/13 08:12:05;;;;;;;16.02;5.15;;;;;;;;;;5029222;28;20144;-53
2023/08/13 08:14:31;;;;;;;17.73;5.57;;;;;;;;;;4931266;29;20031;-51
2023/08/13 08:17:04;;;;;;;16.00;5.43;;;;;;;;;;4947329;28;20399;-48
2023/08/13 08:19:30;;;;;;;20.35;6.60;;;;;;;;;;4932473;29;20024;-48
2023/08/13 08:21:58;;;;;;;16.33;5.22;;;;;;;;;;4931386;28;20034;-51
2023/08/13 08:24:24;;;;;;;19.50;5.70;;;;;;;;;;4931337;28;20028;-47
2023/08/13 08:26:50;;;;;;;19.08;6.38;;;;;;;;;;4971790;28;20090;-50
2023/08/13 08:29:16;;;;;;;16.52;6.05;;;;;;;;;;4958891;28;20028;-53
2023/08/13 08:31:42;;;;;;;18.10;6.10;;;;;;;;;;5029864;28;20420;-52
2023/08/13 08:34:08;;;;;;;18.70;6.20;;;;;;;;;;4930645;29;20084;-52
2023/08/13 08:36:34;;;;;;;21.48;6.63;;;;;;;;;;4930092;29;20067;-53
2023/08/13 08:39:00;;;;;;;15.80;6.07;;;;;;;;;;4931662;29;20024;-51
2023/08/13 08:41:28;;;;;;;18.10;6.38;;;;;;;;;;4932778;28;20443;-49
2023/08/13 08:43:55;;;;;;;19.23;6.88;;;;;;;;;;4949003;28;20106;-52
2023/08/13 08:46:21;;;;;;;18.67;5.95;;;;;;;;;;4952522;28;20593;-54
2023/08/13 08:48:48;;;;;;;18.70;6.70;;;;;;;;;;4952518;28;20039;-49
2023/08/13 08:51:16;;;;;;;19.23;6.38;;;;;;;;;;4953251;28;20067;-49
2023/08/13 08:53:43;;;;;;;16.23;6.57;;;;;;;;;;4942438;28;20030;-55
2023/08/13 08:56:09;;;;;;;17.77;6.18;;;;;;;;;;4934018;28;20055;-54
2023/08/13 08:58:35;;;;;;;18.52;6.47;;;;;;;;;;4934181;28;20054;-50
2023/08/13 09:01:01;;;;;;;23.83;6.80;;;;;;;;;;4933106;28;20028;-49
2023/08/13 09:03:28;;;;;;;21.15;6.45;;;;;;;;;;4939050;28;20114;-53
2023/08/13 09:05:54;;;;;;;16.58;6.30;;;;;;;;;;4952851;28;20028;-53
2023/08/13 09:08:20;;;;;;;16.42;6.78;;;;;;;;;;4953007;28;20395;-49
2023/08/13 09:10:46;;;;;;;18.15;7.05;;;;;;;;;;4953121;28;20052;-54
2023/08/13 09:13:12;;;;;;;17.10;6.45;;;;;;;;;;4953240;28;20111;-50
2023/08/13 09:15:41;;;;;;;19.77;7.35;;;;;;;;;;4953148;28;20031;-50
2023/08/13 09:18:07;;;;;;;19.63;6.95;;;;;;;;;;4945601;28;20019;-51
2023/08/13 09:20:33;;;;;;;19.15;7.65;;;;;;;;;;4933721;29;20070;-50
2023/08/13 09:22:59;;;;;;;17.00;6.97;;;;;;;;;;4933722;29;20055;-49
2023/08/13 09:25:25;;;;;;;19.17;6.85;;;;;;;;;;4954054;28;20087;-51
2023/08/13 09:27:52;;;;;;;20.08;8.00;;;;;;;;;;5033809;28;20104;-50
2023/08/13 09:30:27;;;;;;;18.10;6.63;;;;;;;;;;5034046;28;20018;-48
2023/08/13 09:32:54;;;;;;;17.65;6.95;;;;;;;;;;4970789;28;20441;-48
2023/08/13 09:35:20;;;;;;;16.80;7.07;;;;;;;;;;4933138;28;20039;-48
2023/08/13 09:37:46;;;;;;;18.27;7.28;;;;;;;;;;4933438;28;20608;-52
2023/08/13 09:40:12;;;;;;;17.55;7.25;;;;;;;;;;4933501;29;20078;-48
2023/08/13 09:42:39;;;;;;;18.55;7.40;;;;;;;;;;4933349;29;20036;-48
2023/08/13 09:45:06;;;;;;;16.60;6.90;;;;;;;;;;4932984;29;20043;-48
2023/08/13 09:47:36;;;;;;;17.55;7.50;;;;;;;;;;4946800;29;20035;-53
2023/08/13 09:50:02;;;;;;;19.38;7.03;;;;;;;;;;4952115;28;20106;-52
2023/08/13 09:52:30;;;;;;;16.45;6.57;;;;;;;;;;4946490;28;20463;-50
2023/08/13 09:55:02;;;;;;;16.95;7.55;;;;;;;;;;4932728;29;20031;-49
2023/08/13 09:57:28;;;;;;;17.55;7.07;;;;;;;;;;4932319;29;20166;-48
2023/08/13 09:59:54;;;;;;;17.20;6.70;;;;;;;;;;4947299;28;20030;-50
2023/08/13 10:02:21;;;;;;;17.10;7.82;;;;;;;;;;4930212;28;20031;-52
2023/08/13 10:04:47;;;;;;;17.20;7.65;;;;;;;;;;4956028;28;20028;-50
2023/08/13 10:07:14;;;;;;;16.63;7.60;;;;;;;;;;4978212;28;20025;-49
2023/08/13 10:09:40;;;;;;;17.45;7.50;;;;;;;;;;4932964;29;20024;-52
2023/08/13 10:12:07;;;;;;;17.88;7.30;;;;;;;;;;4947611;28;20074;-49
2023/08/13 10:14:33;;;;;;;19.45;7.50;;;;;;;;;;4934429;29;20115;-48
2023/08/13 10:17:01;;;;;;;17.08;7.40;;;;;;;;;;4951725;28;20047;-50
2023/08/13 10:19:30;;;;;;;22.02;8.23;;;;;;;;;;4951029;28;20543;-47
2023/08/13 10:21:57;;;;;;;21.08;7.30;;;;;;;;;;4935398;28;20039;-54
2023/08/13 10:24:23;;;;;;;16.45;7.70;;;;;;;;;;4931167;29;20027;-45
2023/08/13 10:26:49;;;;;;;15.30;7.25;;;;;;;;;;4932295;29;20027;-47
2023/08/13 10:29:19;;;;;;;18.00;7.65;;;;;;;;;;4937146;28;20107;-51
2023/08/13 10:32:05;;;;;;;17.70;7.28;;;;;;;;;;4951757;29;20027;-47
2023/08/13 10:34:38;;;;;;;16.35;7.40;;;;;;;;;;4950202;28;20046;-49
2023/08/13 10:37:08;;;;;;;15.77;7.70;;;;;;;;;;4951589;28;20027;-49
2023/08/13 10:39:43;;;;;;;18.80;8.20;;;;;;;;;;4951502;28;20039;-51
2023/08/13 10:42:32;;;;;;;19.02;7.90;;;;;;;;;;4951739;28;20027;-54
2023/08/13 10:45:01;;;;;;;17.10;7.93;;;;;;;;;;4934841;28;20086;-51
2023/08/13 10:47:37;;;;;;;18.38;8.13;;;;;;;;;;4932249;28;20063;-46
2023/08/13 10:50:07;;;;;;;17.85;7.97;;;;;;;;;;4913528;29;20397;-52
2023/08/13 10:52:33;;;;;;;19.60;8.15;;;;;;;;;;4914783;28;20095;-54
2023/08/13 10:55:00;;;;;;;16.73;8.35;;;;;;;;;;4937004;28;20032;-49
2023/08/13 10:57:28;;;;;;;15.60;7.68;;;;;;;;;;4932139;28;20038;-53
2023/08/13 10:59:55;;;;;;;17.92;8.15;;;;;;;;;;4944315;28;20032;-52
2023/08/13 11:02:21;;;;;;;17.77;7.50;;;;;;;;;;4931340;29;20043;-50
2023/08/13 11:04:47;;;;;;;14.40;7.50;;;;;;;;;;4947604;28;20131;-51
2023/08/13 11:07:14;;;;;;;15.50;7.78;;;;;;;;;;4940155;29;20039;-50
2023/08/13 11:09:42;;;;;;;16.77;8.10;;;;;;;;;;4931863;29;20054;-52
2023/08/13 11:12:09;;;;;;;15.90;8.30;;;;;;;;;;4931853;29;20519;-53
2023/08/13 11:14:35;;;;;;;15.23;7.95;;;;;;;;;;4932672;29;20040;-52
2023/08/13 11:17:01;;;;;;;15.93;7.93;;;;;;;;;;4931778;28;20042;-52
2023/08/13 11:19:27;;;;;;;16.58;7.88;;;;;;;;;;4931756;28;20476;-53
2023/08/13 11:21:54;;;;;;;16.88;8.80;;;;;;;;;;4931780;28;20430;-51
2023/08/13 11:24:21;;;;;;;15.98;8.63;;;;;;;;;;4931747;28;20035;-52
2023/08/13 11:26:49;;;;;;;17.10;8.87;;;;;;;;;;4931755;28;20032;-50
2023/08/13 11:29:18;;;;;;;17.10;9.48;;;;;;;;;;4947573;29;20164;-52
2023/08/13 11:31:44;;;;;;;18.33;10.10;;;;;;;;;;4950520;28;20399;-48
2023/08/13 11:34:10;;;;;;;17.73;9.55;;;;;;;;;;4950779;28;20031;-52
2023/08/13 11:36:36;;;;;;;18.65;10.13;;;;;;;;;;4950591;28;20027;-54
2023/08/13 11:39:03;;;;;;;16.35;9.52;;;;;;;;;;4949402;28;20085;-59
2023/08/13 11:41:29;;;;;;;17.42;10.50;;;;;;;;;;4949068;28;20030;-59
2023/08/13 11:43:55;;;;;;;17.95;10.18;;;;;;;;;;4948967;28;20111;-59
2023/08/13 11:46:22;;;;;;;18.80;10.77;;;;;;;;;;4948730;28;20028;-59
2023/08/13 11:48:53;;;;;;;18.85;10.55;;;;;;;;;;4951206;28;20038;-59
2023/08/13 11:51:23;;;;;;;18.17;10.60;;;;;;;;;;4950587;28;20479;-57
2023/08/13 11:53:49;;;;;;;18.23;11.00;;;;;;;;;;4939008;28;20044;-58
2023/08/13 11:56:16;;;;;;;19.38;10.38;;;;;;;;;;4934415;29;20035;-57
2023/08/13 11:58:42;;;;;;;17.33;10.82;;;;;;;;;;4950306;28;20024;-60
2023/08/13 12:01:12;;;;;;;17.05;10.40;;;;;;;;;;4950392;28;20510;-54
2023/08/13 12:03:42;;;;;;;16.73;10.63;;;;;;;;;;4950360;28;20084;-60
2023/08/13 12:06:08;;;;;;;18.00;10.93;;;;;;;;;;4948951;28;20027;-58
2023/08/13 12:08:35;;;;;;;16.40;10.48;;;;;;;;;;4949038;28;20034;-57
2023/08/13 12:11:01;;;;;;;20.85;10.63;;;;;;;;;;4941882;28;20477;-59
2023/08/13 12:13:30;;;;;;;17.83;10.20;;;;;;;;;;4933817;29;20462;-57
2023/08/13 12:15:56;;;;;;;17.40;10.18;;;;;;;;;;4934024;29;20037;-57
2023/08/13 12:18:22;;;;;;;19.92;10.52;;;;;;;;;;4934334;29;20031;-55
2023/08/13 12:20:48;;;;;;;16.80;9.82;;;;;;;;;;4934815;29;20040;-56
2023/08/13 12:23:14;;;;;;;18.70;10.52;;;;;;;;;;4934365;28;20035;-56
2023/08/13 12:25:40;;;;;;;16.35;10.02;;;;;;;;;;4944030;28;20036;-56
2023/08/13 12:28:06;;;;;;;18.92;10.48;;;;;;;;;;4952114;28;20039;-54
2023/08/13 12:30:32;;;;;;;17.58;10.23;;;;;;;;;;4953427;28;20107;-59
2023/08/13 12:32:58;;;;;;;18.10;10.50;;;;;;;;;;4953470;28;20334;-58
2023/08/13 12:35:24;;;;;;;17.52;10.50;;;;;;;;;;4951992;28;20023;-55
2023/08/13 12:37:51;;;;;;;17.55;10.40;;;;;;;;;;4953417;28;20115;-56
2023/08/13 12:40:17;;;;;;;21.35;10.85;;;;;;;;;;4598953;28;9999644;-58
2023/08/13 12:42:43;;;;;;;18.83;11.40;;;;;;;;;;4928018;28;20503;-58
2023/08/13 12:45:09;;;;;;;18.63;10.55;;;;;;;;;;4930920;29;20020;-57
2023/08/13 12:47:36;;;;;;;17.65;10.13;;;;;;;;;;4931171;29;20475;-56
2023/08/13 12:50:06;;;;;;;17.75;10.50;;;;;;;;;;4931321;29;20076;-58
2023/08/13 12:52:32;;;;;;;15.88;10.20;;;;;;;;;;4930969;29;20032;-58
2023/08/13 12:54:58;;;;;;;18.33;10.80;;;;;;;;;;4945848;28;20144;-57
2023/08/13 12:57:24;;;;;;;17.33;10.23;;;;;;;;;;4950257;28;20445;-58
2023/08/13 12:59:50;;;;;;;17.40;10.82;;;;;;;;;;4950457;28;20118;-58
2023/08/13 13:02:16;;;;;;;15.63;10.48;;;;;;;;;;4950527;28;20082;-57
2023/08/13 13:04:42;;;;;;;20.67;10.88;;;;;;;;;;4933528;28;20024;-58
2023/08/13 13:07:08;;;;;;;16.13;10.32;;;;;;;;;;4931547;29;20043;-58
2023/08/13 13:09:34;;;;;;;18.40;10.15;;;;;;;;;;4932652;29;20036;-58
2023/08/13 13:12:00;;;;;;;16.50;10.10;;;;;;;;;;4933357;29;20515;-58
2023/08/13 13:14:26;;;;;;;18.92;10.10;;;;;;;;;;4933554;29;20027;-58
2023/08/13 13:16:52;;;;;;;18.33;10.20;;;;;;;;;;4933603;29;20023;-58
2023/08/13 13:19:18;;;;;;;19.20;10.73;;;;;;;;;;4948995;28;20028;-58
2023/08/13 13:21:44;;;;;;;16.60;10.77;;;;;;;;;;4952855;28;20038;-60
2023/08/13 13:24:10;;;;;;;19.02;11.15;;;;;;;;;;4951857;28;20153;-58
2023/08/13 13:26:37;;;;;;;16.65;11.02;;;;;;;;;;4952488;28;20031;-60
2023/08/13 13:29:03;;;;;;;20.65;11.50;;;;;;;;;;4591375;28;10000450;-58
2023/08/13 13:31:29;;;;;;;17.48;10.90;;;;;;;;;;4931316;29;20062;-58
2023/08/13 13:33:55;;;;;;;17.63;11.10;;;;;;;;;;4951130;28;20055;-59
2023/08/13 13:36:22;;;;;;;16.58;11.20;;;;;;;;;;4951355;28;20027;-58
2023/08/13 13:38:48;;;;;;;15.82;11.20;;;;;;;;;;4951990;28;20503;-58
2023/08/13 13:41:14;;;;;;;17.27;11.20;;;;;;;;;;4947818;28;20046;-59
2023/08/13 13:43:40;;;;;;;18.33;11.60;;;;;;;;;;4932927;29;20027;-58
2023/08/13 13:46:07;;;;;;;19.23;11.55;;;;;;;;;;4935752;29;20102;-59
2023/08/13 13:48:32;;;;;;;18.35;11.48;;;;;;;;;;4950519;28;20141;-58
2023/08/13 13:50:58;;;;;;;17.17;11.30;;;;;;;;;;4952242;28;20031;-59
2023/08/13 13:53:24;;;;;;;17.00;11.40;;;;;;;;;;4952263;28;20023;-59
2023/08/13 13:55:50;;;;;;;18.25;11.55;;;;;;;;;;4594650;28;10000236;-58
2023/08/13 13:58:16;;;;;;;16.73;11.13;;;;;;;;;;4928890;29;20070;-59
2023/08/13 14:00:43;;;;;;;17.58;11.43;;;;;;;;;;4935410;28;20030;-59
2023/08/13 14:03:09;;;;;;;17.38;11.60;;;;;;;;;;4949396;28;20198;-59
2023/08/13 14:05:35;;;;;;;17.13;11.38;;;;;;;;;;4949060;28;20586;-58
2023/08/13 14:08:01;;;;;;;21.17;11.98;;;;;;;;;;4949268;28;20026;-58
2023/08/13 14:10:27;;;;;;;18.13;12.13;;;;;;;;;;4948984;28;20055;-59
2023/08/13 14:12:53;;;;;;;19.38;11.95;;;;;;;;;;4949009;28;20032;-59
2023/08/13 14:15:19;;;;;;;17.25;12.20;;;;;;;;;;4940897;28;20031;-59
2023/08/13 14:17:45;;;;;;;16.45;11.50;;;;;;;;;;4929696;29;20404;-59
2023/08/13 14:20:12;;;;;;;18.30;11.73;;;;;;;;;;4929987;29;20515;-59
2023/08/13 14:22:38;;;;;;;17.63;12.02;;;;;;;;;;4928503;29;20047;-61